sensor_id;sensor_type;location;lat;lon;timestamp;P1;durP1;ratioP1;P2;durP2;ratioP2
22675;SDS011;12521;43.310;21.876;2022-11-15T00:03:21;17.0;;;13.0;;
22675;SDS011;12521;43.310;21.876;2022-11-15T00:08:03;17.0;;;13.0;;
22675;SDS011;12521;43.310;21.876;2022-11-15T00:12:40;16.0;;;14.0;;
22675;SDS011;12521;43.310;21.876;2022-11-15T00:17:17;16.0;;;14.0;;
22675;SDS011;12521;43.310;21.876;2022-11-15T00:21:54;16.0;;;14.0;;
22675;SDS011;12521;43.310;21.876;2022-11-15T00:26:30;15.0;;;14.0;;
22675;SDS011;12521;43.310;21.876;2022-11-15T00:31:12;15.0;;;14.0;;
22675;SDS011;12521;43.310;21.876;2022-11-15T00:35:51;24.0;;;18.0;;
22675;SDS011;12521;43.310;21.876;2022-11-15T00:40:28;24.0;;;18.0;;
22675;SDS011;12521;43.310;21.876;2022-11-15T00:45:08;34.0;;;23.0;;
22675;SDS011;12521;43.310;21.876;2022-11-15T00:49:46;34.0;;;23.0;;
22675;SDS011;12521;43.310;21.876;2022-11-15T00:54:22;30.0;;;20.0;;
22675;SDS011;12521;43.310;21.876;2022-11-15T00:58:59;30.0;;;20.0;;
22675;SDS011;12521;43.310;21.876;2022-11-15T01:03:39;25.0;;;16.0;;
22675;SDS011;12521;43.310;21.876;2022-11-15T01:08:17;25.0;;;16.0;;
22675;SDS011;12521;43.310;21.876;2022-11-15T01:12:54;22.0;;;15.0;;
22675;SDS011;12521;43.310;21.876;2022-11-15T01:17:31;22.0;;;15.0;;
22675;SDS011;12521;43.310;21.876;2022-11-15T01:22:08;20.0;;;14.0;;
22675;SDS011;12521;43.310;21.876;2022-11-15T01:26:44;20.0;;;14.0;;
22675;SDS011;12521;43.310;21.876;2022-11-15T01:31:21;20.0;;;14.0;;
22675;SDS011;12521;43.310;21.876;2022-11-15T01:35:58;26.0;;;17.0;;
22675;SDS011;12521;43.310;21.876;2022-11-15T01:40:44;26.0;;;17.0;;
22675;SDS011;12521;43.310;21.876;2022-11-15T01:45:21;31.0;;;20.0;;
22675;SDS011;12521;43.310;21.876;2022-11-15T01:50:05;31.0;;;20.0;;
22675;SDS011;12521;43.310;21.876;2022-11-15T01:54:55;34.0;;;26.0;;
22675;SDS011;12521;43.310;21.876;2022-11-15T01:59:45;34.0;;;26.0;;
22675;SDS011;12521;43.310;21.876;2022-11-15T02:04:28;37.0;;;31.0;;
22675;SDS011;12521;43.310;21.876;2022-11-15T02:09:18;37.0;;;31.0;;
22675;SDS011;12521;43.310;21.876;2022-11-15T02:13:59;40.0;;;30.0;;
22675;SDS011;12521;43.310;21.876;2022-11-15T02:18:57;40.0;;;30.0;;
22675;SDS011;12521;43.310;21.876;2022-11-15T02:25:01;43.0;;;30.0;;
22675;SDS011;12521;43.310;21.876;2022-11-15T02:30:38;43.0;;;30.0;;
22675;SDS011;12521;43.310;21.876;2022-11-15T02:35:43;51.0;;;35.0;;
22675;SDS011;12521;43.310;21.876;2022-11-15T02:40:49;51.0;;;35.0;;
22675;SDS011;12521;43.310;21.876;2022-11-15T02:45:46;59.0;;;40.0;;
22675;SDS011;12521;43.310;21.876;2022-11-15T02:50:38;59.0;;;40.0;;
22675;SDS011;12521;43.310;21.876;2022-11-15T02:55:36;54.0;;;40.0;;
22675;SDS011;12521;43.310;21.876;2022-11-15T03:00:22;54.0;;;40.0;;
22675;SDS011;12521;43.310;21.876;2022-11-15T03:05:14;49.0;;;40.0;;
22675;SDS011;12521;43.310;21.876;2022-11-15T03:10:23;49.0;;;40.0;;
22675;SDS011;12521;43.310;21.876;2022-11-15T03:15:29;50.0;;;40.0;;
22675;SDS011;12521;43.310;21.876;2022-11-15T03:20:16;50.0;;;40.0;;
22675;SDS011;12521;43.310;21.876;2022-11-15T03:25:00;51.0;;;39.0;;
22675;SDS011;12521;43.310;21.876;2022-11-15T03:29:56;51.0;;;39.0;;
22675;SDS011;12521;43.310;21.876;2022-11-15T03:34:52;54.0;;;42.0;;
22675;SDS011;12521;43.310;21.876;2022-11-15T03:39:47;54.0;;;42.0;;
22675;SDS011;12521;43.310;21.876;2022-11-15T03:44:36;56.0;;;45.0;;
22675;SDS011;12521;43.310;21.876;2022-11-15T03:49:49;56.0;;;45.0;;
22675;SDS011;12521;43.310;21.876;2022-11-15T03:54:49;52.0;;;41.0;;
22675;SDS011;12521;43.310;21.876;2022-11-15T03:59:32;52.0;;;41.0;;
22675;SDS011;12521;43.310;21.876;2022-11-15T04:04:09;48.0;;;37.0;;
22675;SDS011;12521;43.310;21.876;2022-11-15T04:08:45;48.0;;;37.0;;
22675;SDS011;12521;43.310;21.876;2022-11-15T04:13:22;43.0;;;36.0;;
22675;SDS011;12521;43.310;21.876;2022-11-15T04:17:58;43.0;;;36.0;;
22675;SDS011;12521;43.310;21.876;2022-11-15T04:22:35;38.0;;;35.0;;
22675;SDS011;12521;43.310;21.876;2022-11-15T04:27:12;38.0;;;35.0;;
22675;SDS011;12521;43.310;21.876;2022-11-15T04:31:48;38.0;;;35.0;;
22675;SDS011;12521;43.310;21.876;2022-11-15T04:36:25;44.0;;;38.0;;
22675;SDS011;12521;43.310;21.876;2022-11-15T04:41:02;44.0;;;38.0;;
22675;SDS011;12521;43.310;21.876;2022-11-15T04:45:39;49.0;;;40.0;;
22675;SDS011;12521;43.310;21.876;2022-11-15T04:50:16;49.0;;;40.0;;
22675;SDS011;12521;43.310;21.876;2022-11-15T04:54:53;50.0;;;39.0;;
22675;SDS011;12521;43.310;21.876;2022-11-15T04:59:30;50.0;;;39.0;;
22675;SDS011;12521;43.310;21.876;2022-11-15T05:04:07;52.0;;;38.0;;
22675;SDS011;12521;43.310;21.876;2022-11-15T05:08:43;52.0;;;38.0;;
22675;SDS011;12521;43.310;21.876;2022-11-15T05:13:20;47.0;;;34.0;;
22675;SDS011;12521;43.310;21.876;2022-11-15T05:17:58;47.0;;;34.0;;
22675;SDS011;12521;43.310;21.876;2022-11-15T05:22:36;42.0;;;29.0;;
22675;SDS011;12521;43.310;21.876;2022-11-15T05:27:13;42.0;;;29.0;;
22675;SDS011;12521;43.310;21.876;2022-11-15T05:31:49;42.0;;;29.0;;
22675;SDS011;12521;43.310;21.876;2022-11-15T05:36:33;46.0;;;33.0;;
22675;SDS011;12521;43.310;21.876;2022-11-15T05:41:22;46.0;;;33.0;;
22675;SDS011;12521;43.310;21.876;2022-11-15T05:46:13;49.0;;;37.0;;
22675;SDS011;12521;43.310;21.876;2022-11-15T05:50:52;49.0;;;37.0;;
22675;SDS011;12521;43.310;21.876;2022-11-15T05:55:30;47.0;;;34.0;;
22675;SDS011;12521;43.310;21.876;2022-11-15T06:00:09;47.0;;;34.0;;
22675;SDS011;12521;43.310;21.876;2022-11-15T06:04:47;45.0;;;31.0;;
22675;SDS011;12521;43.310;21.876;2022-11-15T06:09:23;45.0;;;31.0;;
22675;SDS011;12521;43.310;21.876;2022-11-15T06:14:00;52.0;;;38.0;;
22675;SDS011;12521;43.310;21.876;2022-11-15T06:18:37;52.0;;;38.0;;
22675;SDS011;12521;43.310;21.876;2022-11-15T06:23:14;58.0;;;45.0;;
22675;SDS011;12521;43.310;21.876;2022-11-15T06:27:51;58.0;;;45.0;;
22675;SDS011;12521;43.310;21.876;2022-11-15T06:32:33;53.0;;;43.0;;
22675;SDS011;12521;43.310;21.876;2022-11-15T06:37:11;53.0;;;43.0;;
22675;SDS011;12521;43.310;21.876;2022-11-15T06:41:47;53.0;;;43.0;;
22675;SDS011;12521;43.310;21.876;2022-11-15T06:46:24;48.0;;;41.0;;
22675;SDS011;12521;43.310;21.876;2022-11-15T06:51:03;48.0;;;41.0;;
22675;SDS011;12521;43.310;21.876;2022-11-15T06:55:41;50.0;;;42.0;;
22675;SDS011;12521;43.310;21.876;2022-11-15T07:00:19;50.0;;;42.0;;
22675;SDS011;12521;43.310;21.876;2022-11-15T07:04:58;52.0;;;42.0;;
22675;SDS011;12521;43.310;21.876;2022-11-15T07:09:35;52.0;;;42.0;;
22675;SDS011;12521;43.310;21.876;2022-11-15T07:14:11;64.0;;;54.0;;
22675;SDS011;12521;43.310;21.876;2022-11-15T07:18:47;64.0;;;54.0;;
22675;SDS011;12521;43.310;21.876;2022-11-15T07:23:24;77.0;;;66.0;;
22675;SDS011;12521;43.310;21.876;2022-11-15T07:28:02;77.0;;;66.0;;
22675;SDS011;12521;43.310;21.876;2022-11-15T07:32:40;72.0;;;60.0;;
22675;SDS011;12521;43.310;21.876;2022-11-15T07:37:17;72.0;;;60.0;;
22675;SDS011;12521;43.310;21.876;2022-11-15T07:41:54;72.0;;;60.0;;
22675;SDS011;12521;43.310;21.876;2022-11-15T07:46:31;66.0;;;54.0;;
22675;SDS011;12521;43.310;21.876;2022-11-15T07:51:11;66.0;;;54.0;;
22675;SDS011;12521;43.310;21.876;2022-11-15T07:55:52;64.0;;;51.0;;
22675;SDS011;12521;43.310;21.876;2022-11-15T08:00:29;64.0;;;51.0;;
22675;SDS011;12521;43.310;21.876;2022-11-15T08:05:07;62.0;;;48.0;;
22675;SDS011;12521;43.310;21.876;2022-11-15T08:09:44;62.0;;;48.0;;
22675;SDS011;12521;43.310;21.876;2022-11-15T08:14:21;58.0;;;48.0;;
22675;SDS011;12521;43.310;21.876;2022-11-15T08:18:57;58.0;;;48.0;;
22675;SDS011;12521;43.310;21.876;2022-11-15T08:23:34;55.0;;;49.0;;
22675;SDS011;12521;43.310;21.876;2022-11-15T08:28:11;55.0;;;49.0;;
22675;SDS011;12521;43.310;21.876;2022-11-15T08:32:48;58.0;;;48.0;;
22675;SDS011;12521;43.310;21.876;2022-11-15T08:37:32;58.0;;;48.0;;
22675;SDS011;12521;43.310;21.876;2022-11-15T08:42:09;58.0;;;48.0;;
22675;SDS011;12521;43.310;21.876;2022-11-15T08:46:46;60.0;;;48.0;;
22675;SDS011;12521;43.310;21.876;2022-11-15T08:51:23;60.0;;;48.0;;
22675;SDS011;12521;43.310;21.876;2022-11-15T08:56:01;60.0;;;46.0;;
22675;SDS011;12521;43.310;21.876;2022-11-15T09:00:46;60.0;;;46.0;;
22675;SDS011;12521;43.310;21.876;2022-11-15T09:05:23;60.0;;;45.0;;
22675;SDS011;12521;43.310;21.876;2022-11-15T09:10:01;60.0;;;45.0;;
22675;SDS011;12521;43.310;21.876;2022-11-15T09:14:40;46.0;;;36.0;;
22675;SDS011;12521;43.310;21.876;2022-11-15T09:19:18;46.0;;;36.0;;
22675;SDS011;12521;43.310;21.876;2022-11-15T09:23:54;33.0;;;26.0;;
22675;SDS011;12521;43.310;21.876;2022-11-15T09:28:33;33.0;;;26.0;;
22675;SDS011;12521;43.310;21.876;2022-11-15T09:33:12;34.0;;;26.0;;
22675;SDS011;12521;43.310;21.876;2022-11-15T09:37:49;34.0;;;26.0;;
22675;SDS011;12521;43.310;21.876;2022-11-15T09:42:44;34.0;;;27.0;;
22675;SDS011;12521;43.310;21.876;2022-11-15T09:48:49;34.0;;;27.0;;
22675;SDS011;12521;43.310;21.876;2022-11-15T09:53:43;36.0;;;28.0;;
22675;SDS011;12521;43.310;21.876;2022-11-15T09:58:47;36.0;;;28.0;;
22675;SDS011;12521;43.310;21.876;2022-11-15T10:04:01;39.0;;;29.0;;
22675;SDS011;12521;43.310;21.876;2022-11-15T10:08:51;39.0;;;29.0;;
22675;SDS011;12521;43.310;21.876;2022-11-15T10:14:00;40.0;;;29.0;;
22675;SDS011;12521;43.310;21.876;2022-11-15T10:19:05;40.0;;;29.0;;
22675;SDS011;12521;43.310;21.876;2022-11-15T10:24:25;40.0;;;29.0;;
22675;SDS011;12521;43.310;21.876;2022-11-15T10:29:19;40.0;;;29.0;;
22675;SDS011;12521;43.310;21.876;2022-11-15T10:34:13;40.0;;;30.0;;
22675;SDS011;12521;43.310;21.876;2022-11-15T10:38:58;40.0;;;30.0;;
22675;SDS011;12521;43.310;21.876;2022-11-15T10:43:35;39.0;;;31.0;;
22675;SDS011;12521;43.310;21.876;2022-11-15T10:48:23;39.0;;;31.0;;
22675;SDS011;12521;43.310;21.876;2022-11-15T10:53:01;38.0;;;30.0;;
22675;SDS011;12521;43.310;21.876;2022-11-15T10:57:52;38.0;;;30.0;;
22675;SDS011;12521;43.310;21.876;2022-11-15T11:02:59;38.0;;;29.0;;
22675;SDS011;12521;43.310;21.876;2022-11-15T11:08:00;38.0;;;29.0;;
22675;SDS011;12521;43.310;21.876;2022-11-15T11:13:13;39.0;;;28.0;;
22675;SDS011;12521;43.310;21.876;2022-11-15T11:18:11;39.0;;;28.0;;
22675;SDS011;12521;43.310;21.876;2022-11-15T11:23:33;40.0;;;28.0;;
22675;SDS011;12521;43.310;21.876;2022-11-15T11:28:54;40.0;;;28.0;;
22675;SDS011;12521;43.310;21.876;2022-11-15T11:34:36;51.0;;;32.0;;
22675;SDS011;12521;43.310;21.876;2022-11-15T11:40:05;51.0;;;32.0;;
22675;SDS011;12521;43.310;21.876;2022-11-15T11:45:26;62.0;;;36.0;;
22675;SDS011;12521;43.310;21.876;2022-11-15T11:51:20;62.0;;;36.0;;
22675;SDS011;12521;43.310;21.876;2022-11-15T11:56:29;58.0;;;38.0;;
22675;SDS011;12521;43.310;21.876;2022-11-15T12:01:24;58.0;;;38.0;;
22675;SDS011;12521;43.310;21.876;2022-11-15T12:06:28;53.0;;;40.0;;
22675;SDS011;12521;43.310;21.876;2022-11-15T12:11:29;53.0;;;40.0;;
22675;SDS011;12521;43.310;21.876;2022-11-15T12:16:37;54.0;;;39.0;;
22675;SDS011;12521;43.310;21.876;2022-11-15T12:21:27;54.0;;;39.0;;
22675;SDS011;12521;43.310;21.876;2022-11-15T12:26:28;56.0;;;38.0;;
22675;SDS011;12521;43.310;21.876;2022-11-15T12:31:33;56.0;;;38.0;;
22675;SDS011;12521;43.310;21.876;2022-11-15T12:36:36;52.0;;;37.0;;
22675;SDS011;12521;43.310;21.876;2022-11-15T12:41:21;52.0;;;37.0;;
22675;SDS011;12521;43.310;21.876;2022-11-15T12:46:11;48.0;;;36.0;;
22675;SDS011;12521;43.310;21.876;2022-11-15T12:52:08;48.0;;;36.0;;
22675;SDS011;12521;43.310;21.876;2022-11-15T12:57:36;61.0;;;44.0;;
22675;SDS011;12521;43.310;21.876;2022-11-15T13:02:22;61.0;;;44.0;;
22675;SDS011;12521;43.310;21.876;2022-11-15T13:07:56;74.0;;;53.0;;
22675;SDS011;12521;43.310;21.876;2022-11-15T13:12:55;128.0;;;60.0;;
22675;SDS011;12521;43.310;21.876;2022-11-15T13:17:40;128.0;;;60.0;;
22675;SDS011;12521;43.310;21.876;2022-11-15T13:22:25;128.0;;;60.0;;
22675;SDS011;12521;43.310;21.876;2022-11-15T13:27:13;181.0;;;68.0;;
22675;SDS011;12521;43.310;21.876;2022-11-15T13:31:56;181.0;;;68.0;;
22675;SDS011;12521;43.310;21.876;2022-11-15T13:36:33;118.0;;;53.0;;
22675;SDS011;12521;43.310;21.876;2022-11-15T13:41:18;118.0;;;53.0;;
22675;SDS011;12521;43.310;21.876;2022-11-15T13:46:10;56.0;;;38.0;;
22675;SDS011;12521;43.310;21.876;2022-11-15T13:50:56;56.0;;;38.0;;
22675;SDS011;12521;43.310;21.876;2022-11-15T13:55:35;52.0;;;38.0;;
22675;SDS011;12521;43.310;21.876;2022-11-15T14:00:35;52.0;;;38.0;;
22675;SDS011;12521;43.310;21.876;2022-11-15T14:05:23;48.0;;;39.0;;
22675;SDS011;12521;43.310;21.876;2022-11-15T14:10:24;48.0;;;39.0;;
22675;SDS011;12521;43.310;21.876;2022-11-15T14:15:26;55.0;;;42.0;;
22675;SDS011;12521;43.310;21.876;2022-11-15T14:20:30;55.0;;;42.0;;
22675;SDS011;12521;43.310;21.876;2022-11-15T14:25:18;62.0;;;46.0;;
22675;SDS011;12521;43.310;21.876;2022-11-15T14:30:03;62.0;;;46.0;;
22675;SDS011;12521;43.310;21.876;2022-11-15T14:34:55;70.0;;;52.0;;
22675;SDS011;12521;43.310;21.876;2022-11-15T14:39:39;70.0;;;52.0;;
22675;SDS011;12521;43.310;21.876;2022-11-15T14:44:16;78.0;;;58.0;;
22675;SDS011;12521;43.310;21.876;2022-11-15T14:48:52;78.0;;;58.0;;
22675;SDS011;12521;43.310;21.876;2022-11-15T14:53:29;72.0;;;52.0;;
22675;SDS011;12521;43.310;21.876;2022-11-15T14:58:07;72.0;;;52.0;;
22675;SDS011;12521;43.310;21.876;2022-11-15T15:02:47;72.0;;;52.0;;
22675;SDS011;12521;43.310;21.876;2022-11-15T15:07:29;67.0;;;47.0;;
22675;SDS011;12521;43.310;21.876;2022-11-15T15:12:16;67.0;;;47.0;;
22675;SDS011;12521;43.310;21.876;2022-11-15T15:16:56;70.0;;;52.0;;
22675;SDS011;12521;43.310;21.876;2022-11-15T15:21:33;70.0;;;52.0;;
22675;SDS011;12521;43.310;21.876;2022-11-15T15:26:10;73.0;;;56.0;;
22675;SDS011;12521;43.310;21.876;2022-11-15T15:30:47;73.0;;;56.0;;
22675;SDS011;12521;43.310;21.876;2022-11-15T15:35:30;120.0;;;88.0;;
22675;SDS011;12521;43.310;21.876;2022-11-15T15:40:15;120.0;;;88.0;;
22675;SDS011;12521;43.310;21.876;2022-11-15T15:45:01;167.0;;;121.0;;
22675;SDS011;12521;43.310;21.876;2022-11-15T15:49:39;167.0;;;121.0;;
22675;SDS011;12521;43.310;21.876;2022-11-15T15:54:16;230.0;;;166.0;;
22675;SDS011;12521;43.310;21.876;2022-11-15T15:58:53;230.0;;;166.0;;
22675;SDS011;12521;43.310;21.876;2022-11-15T16:03:30;293.0;;;212.0;;
22675;SDS011;12521;43.310;21.876;2022-11-15T16:08:16;293.0;;;212.0;;
22675;SDS011;12521;43.310;21.876;2022-11-15T16:12:59;274.0;;;198.0;;
22675;SDS011;12521;43.310;21.876;2022-11-15T16:17:42;274.0;;;198.0;;
22675;SDS011;12521;43.310;21.876;2022-11-15T16:22:28;274.0;;;198.0;;
22675;SDS011;12521;43.310;21.876;2022-11-15T16:27:04;255.0;;;185.0;;
22675;SDS011;12521;43.310;21.876;2022-11-15T16:31:49;255.0;;;185.0;;
22675;SDS011;12521;43.310;21.876;2022-11-15T16:36:26;246.0;;;185.0;;
22675;SDS011;12521;43.310;21.876;2022-11-15T16:41:08;246.0;;;185.0;;
22675;SDS011;12521;43.310;21.876;2022-11-15T16:45:45;238.0;;;185.0;;
22675;SDS011;12521;43.310;21.876;2022-11-15T16:50:29;238.0;;;185.0;;
22675;SDS011;12521;43.310;21.876;2022-11-15T16:55:10;249.0;;;188.0;;
22675;SDS011;12521;43.310;21.876;2022-11-15T16:59:47;249.0;;;188.0;;
22675;SDS011;12521;43.310;21.876;2022-11-15T17:04:24;260.0;;;190.0;;
22675;SDS011;12521;43.310;21.876;2022-11-15T17:09:01;260.0;;;190.0;;
22675;SDS011;12521;43.310;21.876;2022-11-15T17:13:38;262.0;;;198.0;;
22675;SDS011;12521;43.310;21.876;2022-11-15T17:18:14;262.0;;;198.0;;
22675;SDS011;12521;43.310;21.876;2022-11-15T17:22:51;262.0;;;198.0;;
22675;SDS011;12521;43.310;21.876;2022-11-15T17:27:28;264.0;;;205.0;;
22675;SDS011;12521;43.310;21.876;2022-11-15T17:32:07;264.0;;;205.0;;
22675;SDS011;12521;43.310;21.876;2022-11-15T17:36:44;252.0;;;194.0;;
22675;SDS011;12521;43.310;21.876;2022-11-15T17:41:20;252.0;;;194.0;;
22675;SDS011;12521;43.310;21.876;2022-11-15T17:45:58;239.0;;;184.0;;
22675;SDS011;12521;43.310;21.876;2022-11-15T17:50:43;239.0;;;184.0;;
22675;SDS011;12521;43.310;21.876;2022-11-15T17:55:19;223.0;;;173.0;;
22675;SDS011;12521;43.310;21.876;2022-11-15T17:59:55;223.0;;;173.0;;
22675;SDS011;12521;43.310;21.876;2022-11-15T18:04:31;207.0;;;162.0;;
22675;SDS011;12521;43.310;21.876;2022-11-15T18:09:08;207.0;;;162.0;;
22675;SDS011;12521;43.310;21.876;2022-11-15T18:13:48;230.0;;;174.0;;
22675;SDS011;12521;43.310;21.876;2022-11-15T18:18:34;230.0;;;174.0;;
22675;SDS011;12521;43.310;21.876;2022-11-15T18:23:12;252.0;;;185.0;;
22675;SDS011;12521;43.310;21.876;2022-11-15T18:27:50;252.0;;;185.0;;
22675;SDS011;12521;43.310;21.876;2022-11-15T18:32:27;252.0;;;185.0;;
22675;SDS011;12521;43.310;21.876;2022-11-15T18:37:04;251.0;;;184.0;;
22675;SDS011;12521;43.310;21.876;2022-11-15T18:41:43;251.0;;;184.0;;
22675;SDS011;12521;43.310;21.876;2022-11-15T18:46:26;250.0;;;184.0;;
22675;SDS011;12521;43.310;21.876;2022-11-15T18:51:09;250.0;;;184.0;;
22675;SDS011;12521;43.310;21.876;2022-11-15T18:55:52;264.0;;;194.0;;
22675;SDS011;12521;43.310;21.876;2022-11-15T19:00:29;264.0;;;194.0;;
22675;SDS011;12521;43.310;21.876;2022-11-15T19:05:06;278.0;;;204.0;;
22675;SDS011;12521;43.310;21.876;2022-11-15T19:09:43;278.0;;;204.0;;
22675;SDS011;12521;43.310;21.876;2022-11-15T19:14:20;288.0;;;221.0;;
22675;SDS011;12521;43.310;21.876;2022-11-15T19:18:59;288.0;;;221.0;;
22675;SDS011;12521;43.310;21.876;2022-11-15T19:23:44;299.0;;;238.0;;
22675;SDS011;12521;43.310;21.876;2022-11-15T19:28:21;299.0;;;238.0;;
22675;SDS011;12521;43.310;21.876;2022-11-15T19:32:58;299.0;;;238.0;;
22675;SDS011;12521;43.310;21.876;2022-11-15T19:37:35;268.0;;;216.0;;
22675;SDS011;12521;43.310;21.876;2022-11-15T19:42:12;268.0;;;216.0;;
22675;SDS011;12521;43.310;21.876;2022-11-15T19:46:49;238.0;;;193.0;;
22675;SDS011;12521;43.310;21.876;2022-11-15T19:51:28;238.0;;;193.0;;
22675;SDS011;12521;43.310;21.876;2022-11-15T19:56:09;230.0;;;186.0;;
22675;SDS011;12521;43.310;21.876;2022-11-15T20:00:59;230.0;;;186.0;;
22675;SDS011;12521;43.310;21.876;2022-11-15T20:05:43;221.0;;;180.0;;
22675;SDS011;12521;43.310;21.876;2022-11-15T20:10:19;221.0;;;180.0;;
22675;SDS011;12521;43.310;21.876;2022-11-15T20:14:56;227.0;;;180.0;;
22675;SDS011;12521;43.310;21.876;2022-11-15T20:19:32;227.0;;;180.0;;
22675;SDS011;12521;43.310;21.876;2022-11-15T20:24:09;233.0;;;180.0;;
22675;SDS011;12521;43.310;21.876;2022-11-15T20:28:47;233.0;;;180.0;;
22675;SDS011;12521;43.310;21.876;2022-11-15T20:33:25;229.0;;;178.0;;
22675;SDS011;12521;43.310;21.876;2022-11-15T20:38:03;229.0;;;178.0;;
22675;SDS011;12521;43.310;21.876;2022-11-15T20:42:42;229.0;;;178.0;;
22675;SDS011;12521;43.310;21.876;2022-11-15T20:47:18;225.0;;;177.0;;
22675;SDS011;12521;43.310;21.876;2022-11-15T20:51:55;225.0;;;177.0;;
22675;SDS011;12521;43.310;21.876;2022-11-15T20:56:32;200.0;;;156.0;;
22675;SDS011;12521;43.310;21.876;2022-11-15T21:01:12;200.0;;;156.0;;
22675;SDS011;12521;43.310;21.876;2022-11-15T21:05:55;174.0;;;135.0;;
22675;SDS011;12521;43.310;21.876;2022-11-15T21:10:32;174.0;;;135.0;;
22675;SDS011;12521;43.310;21.876;2022-11-15T21:15:10;154.0;;;126.0;;
22675;SDS011;12521;43.310;21.876;2022-11-15T21:19:46;154.0;;;126.0;;
22675;SDS011;12521;43.310;21.876;2022-11-15T21:24:23;134.0;;;116.0;;
22675;SDS011;12521;43.310;21.876;2022-11-15T21:29:01;134.0;;;116.0;;
22675;SDS011;12521;43.310;21.876;2022-11-15T21:33:39;159.0;;;131.0;;
22675;SDS011;12521;43.310;21.876;2022-11-15T21:38:15;159.0;;;131.0;;
22675;SDS011;12521;43.310;21.876;2022-11-15T21:42:52;159.0;;;131.0;;
22675;SDS011;12521;43.310;21.876;2022-11-15T21:47:28;184.0;;;146.0;;
22675;SDS011;12521;43.310;21.876;2022-11-15T21:52:05;184.0;;;146.0;;
22675;SDS011;12521;43.310;21.876;2022-11-15T21:56:42;186.0;;;149.0;;
22675;SDS011;12521;43.310;21.876;2022-11-15T22:01:19;186.0;;;149.0;;
22675;SDS011;12521;43.310;21.876;2022-11-15T22:05:59;189.0;;;152.0;;
22675;SDS011;12521;43.310;21.876;2022-11-15T22:10:37;189.0;;;152.0;;
22675;SDS011;12521;43.310;21.876;2022-11-15T22:15:14;181.0;;;142.0;;
22675;SDS011;12521;43.310;21.876;2022-11-15T22:19:51;181.0;;;142.0;;
22675;SDS011;12521;43.310;21.876;2022-11-15T22:24:28;173.0;;;132.0;;
22675;SDS011;12521;43.310;21.876;2022-11-15T22:29:05;173.0;;;132.0;;
22675;SDS011;12521;43.310;21.876;2022-11-15T22:33:43;178.0;;;132.0;;
22675;SDS011;12521;43.310;21.876;2022-11-15T22:38:20;178.0;;;132.0;;
22675;SDS011;12521;43.310;21.876;2022-11-15T22:43:02;178.0;;;132.0;;
22675;SDS011;12521;43.310;21.876;2022-11-15T22:47:41;182.0;;;133.0;;
22675;SDS011;12521;43.310;21.876;2022-11-15T22:52:18;182.0;;;133.0;;
22675;SDS011;12521;43.310;21.876;2022-11-15T22:56:54;182.0;;;133.0;;
22675;SDS011;12521;43.310;21.876;2022-11-15T23:01:31;182.0;;;133.0;;
22675;SDS011;12521;43.310;21.876;2022-11-15T23:15:22;135.0;;;106.0;;
22675;SDS011;12521;43.310;21.876;2022-11-15T23:19:58;135.0;;;106.0;;
22675;SDS011;12521;43.310;21.876;2022-11-15T23:24:35;135.0;;;106.0;;
22675;SDS011;12521;43.310;21.876;2022-11-15T23:29:21;135.0;;;106.0;;
22675;SDS011;12521;43.310;21.876;2022-11-15T23:34:01;136.0;;;104.0;;
22675;SDS011;12521;43.310;21.876;2022-11-15T23:38:38;136.0;;;104.0;;
22675;SDS011;12521;43.310;21.876;2022-11-15T23:43:15;136.0;;;104.0;;
22675;SDS011;12521;43.310;21.876;2022-11-15T23:47:51;138.0;;;102.0;;
22675;SDS011;12521;43.310;21.876;2022-11-15T23:52:28;138.0;;;102.0;;
22675;SDS011;12521;43.310;21.876;2022-11-15T23:57:05;134.0;;;100.0;;
